Weather at Ísafjörður Airport

Public forecast

Using degrees Celsius for public forecast. Weather courtesy of forecast.io.

Current aviation weather report (METAR) for Ísafjörður Airport

Report is more than 2 hours old.

Retrieved 2021/01/20 16:00 UTC (5 hours ago):

BIIS 201600Z 04017KT 6000 -SHSN SCT015 OVC020 M05/M08 Q1020 R88/790135

Closest aviation forecast (TAF) to Ísafjörður Airport

Closest forecast is Reykjavik Airport, 119.6 nm (221.6 km) SSE. Retrieved 2021/01/20 21:30 UTC (0 seconds ago):

TAF TAF BIRK 201929Z 2021/2121 02020KT 9999 FEW025 TXM01/2110Z TNM03/2021Z